sensor_id;sensor_type;location;lat;lon;timestamp;pressure;altitude;pressure_sealevel;temperature
64184;BMP280;50485;49.768;8.636;2022-08-30T00:00:13;100484.50;;;23.10
64184;BMP280;50485;49.768;8.636;2022-08-30T00:02:57;100485.28;;;23.10
64184;BMP280;50485;49.768;8.636;2022-08-30T00:05:23;100482.13;;;23.08
64184;BMP280;50485;49.768;8.636;2022-08-30T00:07:48;100478.25;;;23.06
64184;BMP280;50485;49.768;8.636;2022-08-30T00:10:14;100483.31;;;23.04
64184;BMP280;50485;49.768;8.636;2022-08-30T00:12:40;100490.31;;;23.05
64184;BMP280;50485;49.768;8.636;2022-08-30T00:15:06;100488.34;;;23.02
64184;BMP280;50485;49.768;8.636;2022-08-30T00:17:33;100488.34;;;23.05
64184;BMP280;50485;49.768;8.636;2022-08-30T00:19:58;100492.31;;;23.08
64184;BMP280;50485;49.768;8.636;2022-08-30T00:22:23;100485.66;;;23.12
64184;BMP280;50485;49.768;8.636;2022-08-30T00:24:48;100472.78;;;23.13
64184;BMP280;50485;49.768;8.636;2022-08-30T00:27:14;100486.06;;;23.18
64184;BMP280;50485;49.768;8.636;2022-08-30T00:29:39;100487.63;;;23.19
64184;BMP280;50485;49.768;8.636;2022-08-30T00:32:05;100478.28;;;23.20
64184;BMP280;50485;49.768;8.636;2022-08-30T00:34:30;100482.56;;;23.21
64184;BMP280;50485;49.768;8.636;2022-08-30T00:36:56;100475.94;;;23.22
64184;BMP280;50485;49.768;8.636;2022-08-30T00:39:21;100482.19;;;23.23
64184;BMP280;50485;49.768;8.636;2022-08-30T00:41:46;100483.34;;;23.25
64184;BMP280;50485;49.768;8.636;2022-08-30T00:44:12;100490.38;;;23.23
64184;BMP280;50485;49.768;8.636;2022-08-30T00:46:37;100479.81;;;23.21
64184;BMP280;50485;49.768;8.636;2022-08-30T00:49:04;100485.31;;;23.28
64184;BMP280;50485;49.768;8.636;2022-08-30T00:51:30;100499.38;;;23.23
64184;BMP280;50485;49.768;8.636;2022-08-30T00:53:58;100493.16;;;23.30
64184;BMP280;50485;49.768;8.636;2022-08-30T00:56:24;100496.25;;;23.35
64184;BMP280;50485;49.768;8.636;2022-08-30T00:58:51;100500.56;;;23.36
64184;BMP280;50485;49.768;8.636;2022-08-30T01:01:17;100500.94;;;23.38
64184;BMP280;50485;49.768;8.636;2022-08-30T01:03:42;100493.16;;;23.40
64184;BMP280;50485;49.768;8.636;2022-08-30T01:06:08;100501.72;;;23.42
64184;BMP280;50485;49.768;8.636;2022-08-30T01:08:33;100497.81;;;23.43
64184;BMP280;50485;49.768;8.636;2022-08-30T01:10:59;100511.94;;;23.45
64184;BMP280;50485;49.768;8.636;2022-08-30T01:13:25;100511.94;;;23.45
64184;BMP280;50485;49.768;8.636;2022-08-30T01:15:51;100514.28;;;23.47
64184;BMP280;50485;49.768;8.636;2022-08-30T01:18:17;100508.81;;;23.47
64184;BMP280;50485;49.768;8.636;2022-08-30T01:20:57;100499.44;;;23.48
64184;BMP280;50485;49.768;8.636;2022-08-30T01:23:24;100500.22;;;23.49
64184;BMP280;50485;49.768;8.636;2022-08-30T01:25:50;100507.22;;;23.50
64184;BMP280;50485;49.768;8.636;2022-08-30T01:28:17;100501.75;;;23.50
64184;BMP280;50485;49.768;8.636;2022-08-30T01:30:43;100498.63;;;23.48
64184;BMP280;50485;49.768;8.636;2022-08-30T01:33:09;100503.28;;;23.43
64184;BMP280;50485;49.768;8.636;2022-08-30T01:35:58;100498.63;;;23.44
64184;BMP280;50485;49.768;8.636;2022-08-30T01:38:34;100496.28;;;23.46
64184;BMP280;50485;49.768;8.636;2022-08-30T01:41:04;100496.25;;;23.42
64184;BMP280;50485;49.768;8.636;2022-08-30T01:43:31;100493.94;;;23.44
64184;BMP280;50485;49.768;8.636;2022-08-30T01:45:56;100489.63;;;23.43
64184;BMP280;50485;49.768;8.636;2022-08-30T01:48:21;100493.94;;;23.44
64184;BMP280;50485;49.768;8.636;2022-08-30T01:50:46;100495.53;;;23.45
64184;BMP280;50485;49.768;8.636;2022-08-30T01:53:12;100498.25;;;23.49
64184;BMP280;50485;49.768;8.636;2022-08-30T01:55:37;100495.47;;;23.42
64184;BMP280;50485;49.768;8.636;2022-08-30T01:58:03;100488.47;;;23.44
64184;BMP280;50485;49.768;8.636;2022-08-30T02:00:28;100486.88;;;23.43
64184;BMP280;50485;49.768;8.636;2022-08-30T02:02:54;100488.47;;;23.41
64184;BMP280;50485;49.768;8.636;2022-08-30T02:05:21;100486.88;;;23.43
64184;BMP280;50485;49.768;8.636;2022-08-30T02:07:46;100485.31;;;23.42
64184;BMP280;50485;49.768;8.636;2022-08-30T02:10:11;100486.88;;;23.33
64184;BMP280;50485;49.768;8.636;2022-08-30T02:12:38;100479.84;;;23.35
64184;BMP280;50485;49.768;8.636;2022-08-30T02:15:04;100473.22;;;23.36
64184;BMP280;50485;49.768;8.636;2022-08-30T02:17:30;100486.53;;;23.38
64184;BMP280;50485;49.768;8.636;2022-08-30T02:19:57;100481.41;;;23.40
64184;BMP280;50485;49.768;8.636;2022-08-30T02:22:22;100487.69;;;23.40
64184;BMP280;50485;49.768;8.636;2022-08-30T02:24:47;100493.16;;;23.40
64184;BMP280;50485;49.768;8.636;2022-08-30T02:27:12;100496.69;;;23.41
64184;BMP280;50485;49.768;8.636;2022-08-30T02:29:38;100490.78;;;23.39
64184;BMP280;50485;49.768;8.636;2022-08-30T02:32:03;100491.56;;;23.39
64184;BMP280;50485;49.768;8.636;2022-08-30T02:34:29;100494.69;;;23.31
64184;BMP280;50485;49.768;8.636;2022-08-30T02:36:54;100494.28;;;23.25
64184;BMP280;50485;49.768;8.636;2022-08-30T02:39:19;100479.44;;;23.26
64184;BMP280;50485;49.768;8.636;2022-08-30T02:41:44;100477.53;;;23.30
64184;BMP280;50485;49.768;8.636;2022-08-30T02:44:10;100484.97;;;23.33
64184;BMP280;50485;49.768;8.636;2022-08-30T02:46:35;100482.59;;;23.35
64184;BMP280;50485;49.768;8.636;2022-08-30T02:49:01;100483.00;;;23.37
64184;BMP280;50485;49.768;8.636;2022-08-30T02:51:26;100479.84;;;23.39
64184;BMP280;50485;49.768;8.636;2022-08-30T02:53:51;100481.81;;;23.35
64184;BMP280;50485;49.768;8.636;2022-08-30T02:56:17;100477.53;;;23.37
64184;BMP280;50485;49.768;8.636;2022-08-30T02:58:42;100468.53;;;23.37
64184;BMP280;50485;49.768;8.636;2022-08-30T03:01:09;100472.06;;;23.37
64184;BMP280;50485;49.768;8.636;2022-08-30T03:03:35;100472.06;;;23.37
64184;BMP280;50485;49.768;8.636;2022-08-30T03:06:00;100465.81;;;23.37
64184;BMP280;50485;49.768;8.636;2022-08-30T03:08:27;100470.47;;;23.36
64184;BMP280;50485;49.768;8.636;2022-08-30T03:10:52;100474.03;;;23.37
64184;BMP280;50485;49.768;8.636;2022-08-30T03:13:18;100468.91;;;23.35
64184;BMP280;50485;49.768;8.636;2022-08-30T03:15:43;100472.84;;;23.34
64184;BMP280;50485;49.768;8.636;2022-08-30T03:18:08;100477.53;;;23.34
64184;BMP280;50485;49.768;8.636;2022-08-30T03:20:34;100483.78;;;23.34
64184;BMP280;50485;49.768;8.636;2022-08-30T03:23:00;100479.41;;;23.12
64184;BMP280;50485;49.768;8.636;2022-08-30T03:25:26;100475.91;;;23.08
64184;BMP280;50485;49.768;8.636;2022-08-30T03:27:51;100475.94;;;23.22
64184;BMP280;50485;49.768;8.636;2022-08-30T03:30:17;100465.00;;;23.26
64184;BMP280;50485;49.768;8.636;2022-08-30T03:32:42;100466.59;;;23.27
64184;BMP280;50485;49.768;8.636;2022-08-30T03:35:08;100465.78;;;23.26
64184;BMP280;50485;49.768;8.636;2022-08-30T03:37:33;100473.97;;;23.26
64184;BMP280;50485;49.768;8.636;2022-08-30T03:39:59;100470.47;;;23.26
64184;BMP280;50485;49.768;8.636;2022-08-30T03:42:24;100463.44;;;23.25
64184;BMP280;50485;49.768;8.636;2022-08-30T03:44:51;100459.91;;;23.24
64184;BMP280;50485;49.768;8.636;2022-08-30T03:47:16;100462.66;;;23.24
64184;BMP280;50485;49.768;8.636;2022-08-30T03:49:41;100460.69;;;23.25
64184;BMP280;50485;49.768;8.636;2022-08-30T03:52:07;100458.75;;;23.25
64184;BMP280;50485;49.768;8.636;2022-08-30T03:54:32;100465.38;;;23.24
64184;BMP280;50485;49.768;8.636;2022-08-30T03:56:57;100465.00;;;23.22
64184;BMP280;50485;49.768;8.636;2022-08-30T03:59:22;100467.72;;;23.22
64184;BMP280;50485;49.768;8.636;2022-08-30T04:01:48;100466.16;;;23.21
64184;BMP280;50485;49.768;8.636;2022-08-30T04:04:13;100480.59;;;23.22
64184;BMP280;50485;49.768;8.636;2022-08-30T04:06:38;100467.34;;;23.20
64184;BMP280;50485;49.768;8.636;2022-08-30T04:09:04;100476.69;;;23.19
64184;BMP280;50485;49.768;8.636;2022-08-30T04:11:29;100479.03;;;23.17
64184;BMP280;50485;49.768;8.636;2022-08-30T04:13:54;100478.66;;;23.15
64184;BMP280;50485;49.768;8.636;2022-08-30T04:16:20;100479.81;;;23.14
64184;BMP280;50485;49.768;8.636;2022-08-30T04:18:46;100488.03;;;23.14
64184;BMP280;50485;49.768;8.636;2022-08-30T04:21:11;100489.56;;;23.11
64184;BMP280;50485;49.768;8.636;2022-08-30T04:23:36;100489.56;;;23.08
64184;BMP280;50485;49.768;8.636;2022-08-30T04:26:01;100489.56;;;23.08
64184;BMP280;50485;49.768;8.636;2022-08-30T04:28:26;100485.28;;;23.07
64184;BMP280;50485;49.768;8.636;2022-08-30T04:30:52;100482.13;;;23.08
64184;BMP280;50485;49.768;8.636;2022-08-30T04:33:17;100477.06;;;23.07
64184;BMP280;50485;49.768;8.636;2022-08-30T04:35:43;100474.34;;;23.07
64184;BMP280;50485;49.768;8.636;2022-08-30T04:38:09;100480.16;;;23.05
64184;BMP280;50485;49.768;8.636;2022-08-30T04:40:35;100482.88;;;23.05
64184;BMP280;50485;49.768;8.636;2022-08-30T04:43:00;100479.78;;;22.96
64184;BMP280;50485;49.768;8.636;2022-08-30T04:45:25;100481.72;;;22.96
64184;BMP280;50485;49.768;8.636;2022-08-30T04:47:50;100475.84;;;22.97
64184;BMP280;50485;49.768;8.636;2022-08-30T04:50:16;100471.94;;;22.98
64184;BMP280;50485;49.768;8.636;2022-08-30T04:52:42;100475.09;;;22.97
64184;BMP280;50485;49.768;8.636;2022-08-30T04:55:08;100477.38;;;22.91
64184;BMP280;50485;49.768;8.636;2022-08-30T04:57:34;100479.63;;;22.64
64184;BMP280;50485;49.768;8.636;2022-08-30T05:00:00;100471.28;;;22.36
64184;BMP280;50485;49.768;8.636;2022-08-30T05:02:25;100477.16;;;22.41
64184;BMP280;50485;49.768;8.636;2022-08-30T05:04:50;100483.50;;;22.63
64184;BMP280;50485;49.768;8.636;2022-08-30T05:07:35;100494.91;;;22.76
64184;BMP280;50485;49.768;8.636;2022-08-30T05:10:00;100487.31;;;22.44
64184;BMP280;50485;49.768;8.636;2022-08-30T05:12:25;100487.84;;;22.64
64184;BMP280;50485;49.768;8.636;2022-08-30T05:14:51;100493.34;;;22.75
64184;BMP280;50485;49.768;8.636;2022-08-30T05:17:16;100501.53;;;22.78
64184;BMP280;50485;49.768;8.636;2022-08-30T05:19:41;100500.81;;;22.81
64184;BMP280;50485;49.768;8.636;2022-08-30T05:22:06;100500.50;;;23.08
64184;BMP280;50485;49.768;8.636;2022-08-30T05:24:32;100507.25;;;23.64
64184;BMP280;50485;49.768;8.636;2022-08-30T05:26:57;100504.13;;;23.62
64184;BMP280;50485;49.768;8.636;2022-08-30T05:29:23;100512.31;;;23.33
64184;BMP280;50485;49.768;8.636;2022-08-30T05:31:48;100511.94;;;23.45
64184;BMP280;50485;49.768;8.636;2022-08-30T05:34:13;100514.22;;;23.33
64184;BMP280;50485;49.768;8.636;2022-08-30T05:36:39;100517.41;;;23.88
64184;BMP280;50485;49.768;8.636;2022-08-30T05:39:05;100529.91;;;24.28
64184;BMP280;50485;49.768;8.636;2022-08-30T05:41:30;100521.63;;;24.53
64184;BMP280;50485;49.768;8.636;2022-08-30T05:43:56;100533.72;;;24.66
64184;BMP280;50485;49.768;8.636;2022-08-30T05:46:21;100529.72;;;24.85
64184;BMP280;50485;49.768;8.636;2022-08-30T05:48:47;100546.88;;;25.00
64184;BMP280;50485;49.768;8.636;2022-08-30T05:51:19;100538.25;;;25.05
64184;BMP280;50485;49.768;8.636;2022-08-30T05:53:46;100542.47;;;25.20
64184;BMP280;50485;49.768;8.636;2022-08-30T05:56:12;100541.22;;;25.32
64184;BMP280;50485;49.768;8.636;2022-08-30T05:58:38;100529.47;;;25.31
64184;BMP280;50485;49.768;8.636;2022-08-30T06:01:03;100533.44;;;25.23
64184;BMP280;50485;49.768;8.636;2022-08-30T06:03:29;100534.13;;;25.38
64184;BMP280;50485;49.768;8.636;2022-08-30T06:05:56;100522.75;;;25.39
64184;BMP280;50485;49.768;8.636;2022-08-30T06:08:21;100532.03;;;25.56
64184;BMP280;50485;49.768;8.636;2022-08-30T06:10:47;100528.09;;;25.61
64184;BMP280;50485;49.768;8.636;2022-08-30T06:13:12;100534.44;;;25.51
64184;BMP280;50485;49.768;8.636;2022-08-30T06:15:38;100528.53;;;25.56
64184;BMP280;50485;49.768;8.636;2022-08-30T06:18:03;100530.84;;;25.61
64184;BMP280;50485;49.768;8.636;2022-08-30T06:20:29;100532.97;;;25.35
64184;BMP280;50485;49.768;8.636;2022-08-30T06:22:54;100535.75;;;25.28
64184;BMP280;50485;49.768;8.636;2022-08-30T06:25:19;100534.38;;;25.58
64184;BMP280;50485;49.768;8.636;2022-08-30T06:27:45;100536.31;;;25.61
64184;BMP280;50485;49.768;8.636;2022-08-30T06:30:10;100537.84;;;25.69
64184;BMP280;50485;49.768;8.636;2022-08-30T06:32:36;100543.19;;;25.87
64184;BMP280;50485;49.768;8.636;2022-08-30T06:35:03;100541.16;;;25.94
64184;BMP280;50485;49.768;8.636;2022-08-30T06:37:28;100538.00;;;25.92
64184;BMP280;50485;49.768;8.636;2022-08-30T06:39:54;100537.53;;;26.04
64184;BMP280;50485;49.768;8.636;2022-08-30T06:42:21;100531.97;;;26.12
64184;BMP280;50485;49.768;8.636;2022-08-30T06:44:46;100538.09;;;26.23
64184;BMP280;50485;49.768;8.636;2022-08-30T06:47:11;100533.97;;;26.08
64184;BMP280;50485;49.768;8.636;2022-08-30T06:49:37;100532.22;;;25.83
64184;BMP280;50485;49.768;8.636;2022-08-30T06:52:02;100528.75;;;25.72
64184;BMP280;50485;49.768;8.636;2022-08-30T06:54:27;100539.28;;;25.84
64184;BMP280;50485;49.768;8.636;2022-08-30T06:56:53;100543.53;;;25.89
64184;BMP280;50485;49.768;8.636;2022-08-30T06:59:18;100535.91;;;26.11
64184;BMP280;50485;49.768;8.636;2022-08-30T07:01:43;100543.03;;;26.04
64184;BMP280;50485;49.768;8.636;2022-08-30T07:04:08;100543.75;;;26.09
64184;BMP280;50485;49.768;8.636;2022-08-30T07:06:34;100535.00;;;26.21
64184;BMP280;50485;49.768;8.636;2022-08-30T07:08:59;100538.97;;;26.16
64184;BMP280;50485;49.768;8.636;2022-08-30T07:11:28;100540.00;;;26.29
64184;BMP280;50485;49.768;8.636;2022-08-30T07:13:54;100535.28;;;26.30
64184;BMP280;50485;49.768;8.636;2022-08-30T07:16:19;100535.25;;;26.67
64184;BMP280;50485;49.768;8.636;2022-08-30T07:18:45;100548.91;;;27.05
64184;BMP280;50485;49.768;8.636;2022-08-30T07:21:19;100542.47;;;27.15
64184;BMP280;50485;49.768;8.636;2022-08-30T07:23:45;100546.44;;;27.11
64184;BMP280;50485;49.768;8.636;2022-08-30T07:26:13;100543.91;;;27.23
64184;BMP280;50485;49.768;8.636;2022-08-30T07:28:39;100540.88;;;27.14
64184;BMP280;50485;49.768;8.636;2022-08-30T07:31:05;100553.47;;;27.15
64184;BMP280;50485;49.768;8.636;2022-08-30T07:33:30;100542.34;;;27.22
64184;BMP280;50485;49.768;8.636;2022-08-30T07:35:55;100537.47;;;27.33
64184;BMP280;50485;49.768;8.636;2022-08-30T07:38:21;100554.03;;;27.30
64184;BMP280;50485;49.768;8.636;2022-08-30T07:40:46;100551.78;;;27.21
64184;BMP280;50485;49.768;8.636;2022-08-30T07:43:11;100555.72;;;27.20
64184;BMP280;50485;49.768;8.636;2022-08-30T07:45:37;100560.47;;;27.47
64184;BMP280;50485;49.768;8.636;2022-08-30T07:48:02;100557.28;;;27.71
64184;BMP280;50485;49.768;8.636;2022-08-30T07:50:28;100553.63;;;28.01
64184;BMP280;50485;49.768;8.636;2022-08-30T07:52:53;100555.41;;;28.12
64184;BMP280;50485;49.768;8.636;2022-08-30T07:55:18;100551.53;;;28.29
64184;BMP280;50485;49.768;8.636;2022-08-30T07:57:43;100550.16;;;27.97
64184;BMP280;50485;49.768;8.636;2022-08-30T08:00:09;100544.78;;;28.10
64184;BMP280;50485;49.768;8.636;2022-08-30T08:02:34;100551.03;;;28.34
64184;BMP280;50485;49.768;8.636;2022-08-30T08:05:01;100548.34;;;28.50
64184;BMP280;50485;49.768;8.636;2022-08-30T08:07:29;100547.97;;;28.48
64184;BMP280;50485;49.768;8.636;2022-08-30T08:09:54;100556.25;;;28.68
64184;BMP280;50485;49.768;8.636;2022-08-30T08:12:20;100564.16;;;28.86
64184;BMP280;50485;49.768;8.636;2022-08-30T08:14:45;100558.81;;;28.59
64184;BMP280;50485;49.768;8.636;2022-08-30T08:17:11;100556.59;;;28.70
64184;BMP280;50485;49.768;8.636;2022-08-30T08:19:36;100550.56;;;28.75
64184;BMP280;50485;49.768;8.636;2022-08-30T08:22:01;100551.81;;;28.90
64184;BMP280;50485;49.768;8.636;2022-08-30T08:24:26;100559.16;;;28.77
64184;BMP280;50485;49.768;8.636;2022-08-30T08:26:52;100549.56;;;28.85
64184;BMP280;50485;49.768;8.636;2022-08-30T08:29:17;100551.75;;;29.10
64184;BMP280;50485;49.768;8.636;2022-08-30T08:31:42;100551.16;;;29.19
64184;BMP280;50485;49.768;8.636;2022-08-30T08:34:09;100543.22;;;29.21
64184;BMP280;50485;49.768;8.636;2022-08-30T08:36:35;100540.03;;;29.38
64184;BMP280;50485;49.768;8.636;2022-08-30T08:39:01;100545.66;;;29.51
64184;BMP280;50485;49.768;8.636;2022-08-30T08:41:39;100544.06;;;29.34
64184;BMP280;50485;49.768;8.636;2022-08-30T08:44:29;100542.47;;;29.36
64184;BMP280;50485;49.768;8.636;2022-08-30T08:49:28;100541.66;;;29.20
64184;BMP280;50485;49.768;8.636;2022-08-30T08:51:53;100541.50;;;29.27
64184;BMP280;50485;49.768;8.636;2022-08-30T08:54:40;100541.38;;;29.47
64184;BMP280;50485;49.768;8.636;2022-08-30T08:57:07;100534.06;;;29.56
64184;BMP280;50485;49.768;8.636;2022-08-30T08:59:33;100540.53;;;29.50
64184;BMP280;50485;49.768;8.636;2022-08-30T09:01:58;100542.25;;;29.60
64184;BMP280;50485;49.768;8.636;2022-08-30T09:04:28;100537.41;;;29.93
64184;BMP280;50485;49.768;8.636;2022-08-30T09:06:58;100542.97;;;30.05
64184;BMP280;50485;49.768;8.636;2022-08-30T09:09:26;100535.41;;;30.09
64184;BMP280;50485;49.768;8.636;2022-08-30T09:11:52;100533.22;;;30.42
64184;BMP280;50485;49.768;8.636;2022-08-30T09:14:18;100541.53;;;30.01
64184;BMP280;50485;49.768;8.636;2022-08-30T09:22:00;100540.22;;;30.85
64184;BMP280;50485;49.768;8.636;2022-08-30T09:24:25;100532.56;;;31.02
64184;BMP280;50485;49.768;8.636;2022-08-30T09:26:50;100538.91;;;30.77
64184;BMP280;50485;49.768;8.636;2022-08-30T09:29:16;100526.59;;;29.98
64184;BMP280;50485;49.768;8.636;2022-08-30T09:31:46;100536.13;;;29.81
64184;BMP280;50485;49.768;8.636;2022-08-30T09:34:17;100533.91;;;30.84
64184;BMP280;50485;49.768;8.636;2022-08-30T09:36:46;100521.19;;;31.00
64184;BMP280;50485;49.768;8.636;2022-08-30T09:39:14;100526.13;;;31.30
64184;BMP280;50485;49.768;8.636;2022-08-30T09:41:42;100528.66;;;31.81
64184;BMP280;50485;49.768;8.636;2022-08-30T09:44:21;100526.50;;;31.76
64184;BMP280;50485;49.768;8.636;2022-08-30T09:46:54;100528.03;;;31.77
64184;BMP280;50485;49.768;8.636;2022-08-30T09:49:34;100522.75;;;31.70
64184;BMP280;50485;49.768;8.636;2022-08-30T09:54:41;100519.28;;;32.31
64184;BMP280;50485;49.768;8.636;2022-08-30T10:02:34;100507.31;;;32.92
64184;BMP280;50485;49.768;8.636;2022-08-30T10:05:24;100512.56;;;32.50
64184;BMP280;50485;49.768;8.636;2022-08-30T10:07:51;100501.09;;;32.30
64184;BMP280;50485;49.768;8.636;2022-08-30T10:11:03;100509.53;;;31.96
64184;BMP280;50485;49.768;8.636;2022-08-30T10:13:27;100494.97;;;30.66
64184;BMP280;50485;49.768;8.636;2022-08-30T10:16:00;100491.19;;;29.81
64184;BMP280;50485;49.768;8.636;2022-08-30T10:18:31;100496.28;;;29.37
64184;BMP280;50485;49.768;8.636;2022-08-30T10:21:06;100488.44;;;29.35
64184;BMP280;50485;49.768;8.636;2022-08-30T10:23:36;100475.50;;;29.16
64184;BMP280;50485;49.768;8.636;2022-08-30T10:28:38;100471.75;;;29.10
64184;BMP280;50485;49.768;8.636;2022-08-30T10:35:07;100463.88;;;29.08
64184;BMP280;50485;49.768;8.636;2022-08-30T10:37:08;100472.75;;;29.00
64184;BMP280;50485;49.768;8.636;2022-08-30T10:39:36;100459.16;;;29.09
64184;BMP280;50485;49.768;8.636;2022-08-30T10:42:06;100472.84;;;28.96
64184;BMP280;50485;49.768;8.636;2022-08-30T10:44:40;100470.06;;;28.80
64184;BMP280;50485;49.768;8.636;2022-08-30T10:47:23;100468.53;;;28.79
64184;BMP280;50485;49.768;8.636;2022-08-30T10:49:51;100463.63;;;28.70
64184;BMP280;50485;49.768;8.636;2022-08-30T10:52:37;100472.06;;;28.80
64184;BMP280;50485;49.768;8.636;2022-08-30T10:57:48;100470.72;;;28.52
64184;BMP280;50485;49.768;8.636;2022-08-30T11:00:22;100472.31;;;28.33
64184;BMP280;50485;49.768;8.636;2022-08-30T11:10:35;100460.47;;;28.52
64184;BMP280;50485;49.768;8.636;2022-08-30T11:13:03;100445.78;;;28.39
64184;BMP280;50485;49.768;8.636;2022-08-30T11:15:30;100455.94;;;28.06
64184;BMP280;50485;49.768;8.636;2022-08-30T11:17:59;100455.84;;;28.29
64184;BMP280;50485;49.768;8.636;2022-08-30T11:36:10;100455.03;;;28.13
64184;BMP280;50485;49.768;8.636;2022-08-30T11:41:27;100445.66;;;28.26
64184;BMP280;50485;49.768;8.636;2022-08-30T11:43:53;100444.75;;;28.33
64184;BMP280;50485;49.768;8.636;2022-08-30T11:49:02;100440.72;;;28.18
64184;BMP280;50485;49.768;8.636;2022-08-30T11:59:45;100433.97;;;28.22
64184;BMP280;50485;49.768;8.636;2022-08-30T12:02:37;100444.69;;;28.17
64184;BMP280;50485;49.768;8.636;2022-08-30T12:04:56;100432.91;;;27.96
64184;BMP280;50485;49.768;8.636;2022-08-30T12:10:06;100419.84;;;28.00
64184;BMP280;50485;49.768;8.636;2022-08-30T12:12:45;100412.84;;;27.96
64184;BMP280;50485;49.768;8.636;2022-08-30T12:16:13;100422.88;;;28.06
64184;BMP280;50485;49.768;8.636;2022-08-30T12:18:06;100413.94;;;28.18
64184;BMP280;50485;49.768;8.636;2022-08-30T12:20:52;100417.97;;;28.14
64184;BMP280;50485;49.768;8.636;2022-08-30T12:23:31;100411.19;;;28.18
64184;BMP280;50485;49.768;8.636;2022-08-30T12:26:10;100417.13;;;28.17
64184;BMP280;50485;49.768;8.636;2022-08-30T12:28:36;100404.50;;;28.19
64184;BMP280;50485;49.768;8.636;2022-08-30T12:31:21;100408.84;;;28.17
64184;BMP280;50485;49.768;8.636;2022-08-30T12:33:49;100403.78;;;28.15
64184;BMP280;50485;49.768;8.636;2022-08-30T12:36:37;100404.06;;;28.01
64184;BMP280;50485;49.768;8.636;2022-08-30T12:39:10;100393.91;;;27.98
64184;BMP280;50485;49.768;8.636;2022-08-30T12:41:35;100411.69;;;28.13
64184;BMP280;50485;49.768;8.636;2022-08-30T12:44:01;100408.44;;;28.18
64184;BMP280;50485;49.768;8.636;2022-08-30T12:46:26;100400.50;;;28.20
64184;BMP280;50485;49.768;8.636;2022-08-30T12:48:52;100397.09;;;28.16
64184;BMP280;50485;49.768;8.636;2022-08-30T12:54:20;100400.13;;;28.38
64184;BMP280;50485;49.768;8.636;2022-08-30T12:56:51;100393.06;;;28.37
64184;BMP280;50485;49.768;8.636;2022-08-30T13:02:11;100397.47;;;28.15
64184;BMP280;50485;49.768;8.636;2022-08-30T13:04:37;100381.63;;;28.02
64184;BMP280;50485;49.768;8.636;2022-08-30T13:07:03;100378.09;;;28.02
64184;BMP280;50485;49.768;8.636;2022-08-30T13:09:35;100379.91;;;28.09
64184;BMP280;50485;49.768;8.636;2022-08-30T13:12:02;100372.09;;;28.23
64184;BMP280;50485;49.768;8.636;2022-08-30T13:14:35;100368.69;;;28.19
64184;BMP280;50485;49.768;8.636;2022-08-30T13:17:18;100370.97;;;28.21
64184;BMP280;50485;49.768;8.636;2022-08-30T13:19:56;100373.09;;;28.13
64184;BMP280;50485;49.768;8.636;2022-08-30T13:22:25;100363.41;;;28.25
64184;BMP280;50485;49.768;8.636;2022-08-30T13:24:51;100362.38;;;28.35
64184;BMP280;50485;49.768;8.636;2022-08-30T13:27:17;100362.19;;;28.10
64184;BMP280;50485;49.768;8.636;2022-08-30T13:29:42;100363.78;;;28.07
64184;BMP280;50485;49.768;8.636;2022-08-30T13:32:07;100355.66;;;28.20
64184;BMP280;50485;49.768;8.636;2022-08-30T13:34:32;100353.78;;;28.33
64184;BMP280;50485;49.768;8.636;2022-08-30T13:36:59;100352.03;;;28.23
64184;BMP280;50485;49.768;8.636;2022-08-30T13:39:25;100349.53;;;28.12
64184;BMP280;50485;49.768;8.636;2022-08-30T13:41:50;100347.03;;;28.18
64184;BMP280;50485;49.768;8.636;2022-08-30T13:44:16;100351.91;;;28.10
64184;BMP280;50485;49.768;8.636;2022-08-30T13:46:43;100353.22;;;28.05
64184;BMP280;50485;49.768;8.636;2022-08-30T13:49:11;100339.03;;;28.23
64184;BMP280;50485;49.768;8.636;2022-08-30T13:51:40;100344.19;;;28.21
64184;BMP280;50485;49.768;8.636;2022-08-30T13:54:05;100332.22;;;28.12
64184;BMP280;50485;49.768;8.636;2022-08-30T13:56:30;100338.25;;;28.23
64184;BMP280;50485;49.768;8.636;2022-08-30T13:58:56;100336.41;;;28.36
64184;BMP280;50485;49.768;8.636;2022-08-30T14:01:21;100334.91;;;28.31
64184;BMP280;50485;49.768;8.636;2022-08-30T14:03:47;100328.66;;;28.11
64184;BMP280;50485;49.768;8.636;2022-08-30T14:06:12;100333.25;;;28.18
64184;BMP280;50485;49.768;8.636;2022-08-30T14:08:37;100330.69;;;28.27
64184;BMP280;50485;49.768;8.636;2022-08-30T14:11:02;100333.09;;;28.25
64184;BMP280;50485;49.768;8.636;2022-08-30T14:13:28;100319.09;;;27.99
64184;BMP280;50485;49.768;8.636;2022-08-30T14:15:53;100318.56;;;28.04
64184;BMP280;50485;49.768;8.636;2022-08-30T14:18:18;100327.16;;;28.26
64184;BMP280;50485;49.768;8.636;2022-08-30T14:20:43;100314.78;;;28.34
64184;BMP280;50485;49.768;8.636;2022-08-30T14:23:09;100323.97;;;28.28
64184;BMP280;50485;49.768;8.636;2022-08-30T14:25:34;100316.75;;;28.34
64184;BMP280;50485;49.768;8.636;2022-08-30T14:27:59;100313.63;;;28.32
64184;BMP280;50485;49.768;8.636;2022-08-30T14:30:24;100311.16;;;28.37
64184;BMP280;50485;49.768;8.636;2022-08-30T14:32:50;100306.31;;;28.41
64184;BMP280;50485;49.768;8.636;2022-08-30T14:35:15;100307.28;;;28.51
64184;BMP280;50485;49.768;8.636;2022-08-30T14:37:42;100294.34;;;28.48
64184;BMP280;50485;49.768;8.636;2022-08-30T14:40:07;100301.75;;;28.35
64184;BMP280;50485;49.768;8.636;2022-08-30T14:42:33;100299.00;;;28.19
64184;BMP280;50485;49.768;8.636;2022-08-30T14:44:58;100297.03;;;28.19
64184;BMP280;50485;49.768;8.636;2022-08-30T14:47:23;100295.03;;;28.20
64184;BMP280;50485;49.768;8.636;2022-08-30T14:49:48;100284.50;;;28.15
64184;BMP280;50485;49.768;8.636;2022-08-30T14:52:13;100289.50;;;28.20
64184;BMP280;50485;49.768;8.636;2022-08-30T14:54:39;100286.94;;;28.29
64184;BMP280;50485;49.768;8.636;2022-08-30T14:57:04;100285.56;;;28.37
64184;BMP280;50485;49.768;8.636;2022-08-30T14:59:29;100287.44;;;28.24
64184;BMP280;50485;49.768;8.636;2022-08-30T15:01:54;100280.31;;;28.26
64184;BMP280;50485;49.768;8.636;2022-08-30T15:04:20;100278.16;;;28.18
64184;BMP280;50485;49.768;8.636;2022-08-30T15:06:46;100279.34;;;28.17